Data for 03/05/2013

Time Sea-Level Adjusted Pressure Absolute Pressure Temperature Relative Humidity Dew Point   
(mb) (inHg) (mb) (inHg) (C) (F) (%) (C) (F)
00:05 1022 30.18 851 25.13 -9.7 14.5 64 -15.2 4.6
00:10 1022 30.18 851 25.13 -9.7 14.5 64 -15.2 4.6
00:15 1022 30.18 851 25.13 -9.9 14.2 65 -15.3 4.4
00:20 1022 30.18 851 25.13 -10.1 13.9 65 -15.4 4.2
00:25 1022 30.18 851 25.13 -10.3 13.5 66 -15.5 4.1
00:30 1022 30.18 851 25.13 -10.3 13.4 66 -15.4 4.2
00:35 1022 30.18 851 25.13 -10.1 13.8 65 -15.4 4.2
00:40 1022 30.18 851 25.13 -9.7 14.5 65 -15.2 4.7
00:45 1022 30.18 851 25.13 -9.5 14.9 64 -15.1 4.9
00:50 1022 30.18 851 25.13 -9.5 15 64 -15.1 4.8
00:55 1022 30.18 851 25.13 -9.5 14.8 64 -15.2 4.7
01:00 1022 30.18 851 25.13 -9.5 14.9 64 -15.2 4.6
01:05 1022 30.18 851 25.13 -9.6 14.8 63 -15.3 4.5
01:10 1022 30.18 851 25.13 -9.8 14.4 64 -15.3 4.4
01:15 1022 30.18 851 25.13 -9.9 14.2 65 -15.4 4.3
01:20 1022 30.18 851 25.13 -10 14.1 65 -15.4 4.2
01:25 1022 30.18 851 25.13 -10 14 65 -15.3 4.4
01:30 1022 30.18 851 25.13 -10.1 13.8 65 -15.4 4.2
01:35 1022 30.18 851 25.13 -10.2 13.6 66 -15.4 4.2
01:40 1022 30.18 851 25.13 -10.3 13.4 66 -15.5 4.1
01:45 1022 30.18 851 25.13 -10.3 13.6 66 -15.5 4.2
01:50 1022 30.18 851 25.13 -10.2 13.7 66 -15.5 4.2
01:55 1022 30.18 851 25.13 -10.2 13.6 66 -15.4 4.3
02:00 1022 30.18 851 25.13 -10.1 13.8 66 -15.4 4.3
02:05 1022 30.18 851 25.13 -10 14 65 -15.5 4.2
02:10 1022 30.18 851 25.13 -10 14 65 -15.4 4.3
02:15 1022 30.18 851 25.13 -10.2 13.6 65 -15.5 4.1
02:20 1022 30.18 851 25.13 -10.3 13.4 66 -15.5 4
02:25 1022 30.18 851 25.13 -10.2 13.6 66 -15.5 4.2
02:30 1022 30.18 851 25.13 -10.1 13.8 65 -15.4 4.3
02:35 1022 30.18 851 25.13 -10.2 13.6 66 -15.4 4.2
02:40 1022 30.18 851 25.13 -10.3 13.5 65 -15.6 4
02:45 1022 30.18 851 25.13 -10.3 13.4 66 -15.6 4
02:50 1022 30.18 851 25.13 -10.5 13.2 67 -15.5 4
02:55 1022 30.18 851 25.13 -10.6 13 67 -15.6 3.9
03:00 1022 30.18 851 25.13 -10.6 12.9 67 -15.6 3.8
03:05 1022 30.18 851 25.13 -10.6 13 66 -15.7 3.8
03:10 1021 30.15 851 25.13 -10.5 13.1 67 -15.6 3.9
03:15 1022 30.18 851 25.13 -10.4 13.2 67 -15.5 4.2
03:20 1021 30.15 851 25.13 -10.3 13.4 67 -15.4 4.3
03:25 1021 30.15 851 25.13 -10.4 13.3 67 -15.4 4.3
03:30 1021 30.15 851 25.13 -10.3 13.4 66 -15.5 4.1
03:35 1021 30.15 850 25.1 -10.3 13.5 66 -15.5 4.2
03:40 1021 30.15 850 25.1 -10.3 13.5 66 -15.5 4.1
03:45 1021 30.15 850 25.1 -10.3 13.5 66 -15.5 4.1
03:50 1021 30.15 850 25.1 -10.3 13.5 65 -15.6 3.9
03:55 1021 30.15 850 25.1 -10.3 13.5 66 -15.5 4.1
04:00 1021 30.15 850 25.1 -10.3 13.5 66 -15.6 4
04:05 1021 30.15 850 25.1 -10.3 13.4 66 -15.6 3.9
04:10 1021 30.15 850 25.1 -10.4 13.3 66 -15.6 3.9
04:15 1021 30.15 850 25.1 -10.4 13.4 65 -15.7 3.7
04:20 1021 30.15 850 25.1 -10.4 13.2 66 -15.7 3.7
04:25 1021 30.15 850 25.1 -10.5 13 66 -15.6 3.8
04:30 1021 30.15 850 25.1 -10.5 13.1 66 -15.7 3.7
04:35 1021 30.15 850 25.1 -10.5 13.1 66 -15.7 3.8
04:40 1021 30.15 850 25.1 -10.4 13.3 65 -15.8 3.5
04:45 1021 30.15 850 25.1 -10.1 13.8 63 -15.8 3.6
04:50 1021 30.15 850 25.1 -10.1 13.9 64 -15.7 3.7
04:55 1021 30.15 850 25.1 -10 14 63 -15.8 3.5
05:00 1021 30.15 850 25.1 -9.7 14.5 62 -15.7 3.7
05:05 1021 30.15 850 25.1 -9.5 14.8 61 -15.7 3.7
05:10 1021 30.15 850 25.1 -9.5 14.8 61 -15.7 3.8
05:15 1021 30.15 850 25.1 -9.5 14.8 61 -15.8 3.6
05:20 1021 30.15 850 25.1 -9.7 14.6 62 -15.7 3.8
05:25 1021 30.15 850 25.1 -9.9 14.2 63 -15.7 3.7
05:30 1021 30.15 850 25.1 -10.1 13.8 64 -15.7 3.7
05:35 1021 30.15 850 25.1 -10.3 13.5 64 -15.8 3.6
05:40 1021 30.15 850 25.1 -10.2 13.7 65 -15.5 4
05:45 1021 30.15 850 25.1 -10 13.9 66 -15.3 4.5
05:50 1021 30.15 850 25.1 -10.1 13.8 66 -15.4 4.3
05:55 1021 30.15 850 25.1 -10.2 13.6 66 -15.5 4.2
06:00 1021 30.15 850 25.1 -10.2 13.6 65 -15.7 3.8
06:05 1021 30.15 850 25.1 -10.1 13.8 65 -15.5 4
06:10 1021 30.15 850 25.1 -10.3 13.4 65 -15.7 3.8
06:15 1021 30.15 850 25.1 -10.5 13.2 66 -15.6 3.8
06:20 1021 30.15 850 25.1 -10.8 12.5 69 -15.5 4.2
06:25 1021 30.15 850 25.1 -10.7 12.8 70 -15.2 4.7
06:30 1021 30.15 850 25.1 -10.6 13 71 -14.9 5.1
06:35 1021 30.15 850 25.1 -10.7 12.7 71 -15 5.1
06:40 1021 30.15 850 25.1 -10.2 13.6 68 -15.1 4.8
06:45 1021 30.15 850 25.1 -9.5 14.8 64 -15.2 4.7
06:50 1021 30.15 850 25.1 -9.6 14.7 64 -15.1 4.8
06:55 1021 30.15 850 25.1 -9.8 14.3 65 -15.3 4.5
07:00 1021 30.15 850 25.1 -10 14 64 -15.7 3.8
07:05 1021 30.15 850 25.1 -10 14 65 -15.5 4.2
07:10 1021 30.15 850 25.1 -10.5 13.2 67 -15.5 4.2
07:15 1021 30.15 850 25.1 -10.7 12.7 68 -15.6 4
07:20 1021 30.15 850 25.1 -10.7 12.7 68 -15.6 3.9
07:25 1021 30.15 850 25.1 -11.1 12.1 69 -15.6 3.9
07:30 1021 30.15 850 25.1 -11.5 11.3 73 -15.4 4.3
07:35 1021 30.15 850 25.1 -11.4 11.4 72 -15.4 4.2
07:40 1021 30.15 850 25.1 -10.3 13.5 71 -14.6 5.7
07:45 1021 30.15 850 25.1 -9.9 14.2 64 -15.5 4.2
07:50 1021 30.15 850 25.1 -9.1 15.6 61 -15.3 4.5
07:55 1021 30.15 850 25.1 -9.3 15.2 62 -15.3 4.4
08:00 1021 30.15 850 25.1 -9.7 14.6 64 -15.4 4.3
08:05 1021 30.15 850 25.1 -9.7 14.6 64 -15.3 4.4
08:10 1021 30.15 850 25.1 -9.5 15 62 -15.5 4.2
08:15 1021 30.15 850 25.1 -9.5 14.9 63 -15.2 4.6
08:20 1021 30.15 850 25.1 -9.8 14.3 65 -15.3 4.5
08:25 1021 30.15 850 25.1 -9.8 14.5 64 -15.3 4.4
08:30 1021 30.15 850 25.1 -9.4 15.2 62 -15.4 4.2
08:35 1021 30.15 850 25.1 -9.3 15.3 62 -15.2 4.6
08:40 1021 30.15 850 25.1 -9.4 15.1 62 -15.3 4.4
08:45 1021 30.15 850 25.1 -9.5 15 64 -15.1 4.9
08:50 1021 30.15 850 25.1 -9.6 14.8 63 -15.3 4.4
08:55 1021 30.15 850 25.1 -9.4 15 63 -15.3 4.5
09:00 1021 30.15 850 25.1 -9.1 15.7 61 -15.3 4.5
09:05 1021 30.15 850 25.1 -8.9 16 60 -15.2 4.6
09:10 1021 30.15 850 25.1 -8.9 16 61 -15.1 4.8
09:15 1021 30.15 850 25.1 -8.5 16.7 60 -15 5.1
09:20 1021 30.15 850 25.1 -8.3 17.1 59 -15 5
09:25 1021 30.15 850 25.1 -7.9 17.9 57 -14.9 5.2
09:30 1021 30.15 850 25.1 -7.2 19 55 -14.7 5.5
09:35 1021 30.15 850 25.1 -7 19.3 55 -14.6 5.7
09:40 1021 30.15 850 25.1 -6.4 20.5 53 -14.4 6
09:45 1021 30.15 850 25.1 -5.8 21.5 53 -14 6.7
09:50 1021 30.15 850 25.1 -5.6 21.9 51 -14.3 6.2
09:55 1020 30.12 850 25.1 -6.2 20.8 52 -14.6 5.7
10:00 1020 30.12 850 25.1 -6.2 20.8 53 -14.4 6
10:05 1020 30.12 850 25.1 -6 21.2 54 -13.8 7.1
10:10 1020 30.12 850 25.1 -5.9 21.4 53 -14 6.8
10:15 1020 30.12 850 25.1 -5.5 22.1 51 -14.2 6.5
10:20 1020 30.12 850 25.1 -5.2 22.7 51 -13.8 7.2
10:25 1020 30.12 850 25.1 -4.3 24.2 50 -13.4 7.9
10:30 1020 30.12 850 25.1 -4 24.7 48 -13.5 7.7
10:35 1020 30.12 849 25.07 -4.3 24.3 51 -12.9 8.8
10:40 1020 30.12 850 25.1 -4.6 23.7 51 -13.4 7.9
10:45 1020 30.12 850 25.1 -5.4 22.2 52 -13.8 7.2
10:50 1020 30.12 849 25.07 -5.4 22.3 51 -13.9 7
10:55 1020 30.12 849 25.07 -5 23.1 49 -14 6.7
11:00 1020 30.12 849 25.07 -4.7 23.5 50 -13.6 7.5
11:05 1020 30.12 849 25.07 -4.1 24.7 49 -13.3 8.1
11:10 1020 30.12 849 25.07 -4 24.9 48 -13.4 8
11:15 1020 30.12 849 25.07 -3.7 25.4 46 -13.6 7.5
11:20 1020 30.12 849 25.07 -4.4 24.1 50 -13.4 7.9
11:25 1020 30.12 849 25.07 -4.4 24.1 48 -13.9 7
11:30 1020 30.12 849 25.07 -3.7 25.3 46 -13.9 7
11:35 1020 30.12 849 25.07 -3.2 26.3 45 -13.6 7.5
11:40 1020 30.12 849 25.07 -3 26.6 45 -13.4 7.9
11:45 1020 30.12 849 25.07 -2.8 27 45 -13.2 8.2
11:50 1020 30.12 849 25.07 -2.7 27.1 43 -13.6 7.5
11:55 1020 30.12 849 25.07 -2.8 27 47 -12.6 9.3
12:00 1020 30.12 849 25.07 -3.9 25 48 -13.5 7.7
12:05 1020 30.12 849 25.07 -3.1 26.4 46 -13.1 8.5
12:10 1020 30.12 849 25.07 -2.5 27.5 43 -13.5 7.7
12:15 1020 30.12 849 25.07 -3.7 25.3 48 -13.2 8.3
12:20 1020 30.12 849 25.07 -4.3 24.3 47 -13.9 7
12:25 1020 30.12 849 25.07 -4.2 24.5 44 -14.6 5.7
12:30 1020 30.12 849 25.07 -2.5 27.5 41 -13.9 6.9
12:35 1020 30.12 849 25.07 -1.8 28.7 40 -13.6 7.5
12:40 1020 30.12 849 25.07 -1.9 28.5 40 -13.9 7
12:45 1020 30.12 849 25.07 -2.4 27.8 44 -13 8.6
12:50 1019 30.09 849 25.07 -2 28.5 41 -13.6 7.5
12:55 1019 30.09 849 25.07 -1.3 29.6 38 -13.9 6.9
13:00 1019 30.09 849 25.07 -1.5 29.3 40 -13.3 8.1
13:05 1019 30.09 848 25.04 -1.1 29.9 38 -13.7 7.3
13:10 1019 30.09 848 25.04 -1.2 29.8 41 -12.7 9.1
13:15 1019 30.09 848 25.04 -0.5 31 37 -13.4 7.9
13:20 1019 30.09 848 25.04 -0.9 30.3 39 -13.4 7.9
13:25 1019 30.09 848 25.04 -1.1 30 38 -13.5 7.6
13:30 1019 30.09 848 25.04 -1.7 29 43 -12.7 9.2
13:35 1019 30.09 848 25.04 -1.9 28.6 39 -14.2 6.5
13:40 1019 30.09 848 25.04 -1.6 29.1 36 -14.9 5.1
13:45 1019 30.09 848 25.04 -1.6 29.1 38 -14.1 6.6
13:50 1019 30.09 848 25.04 -1.3 29.6 36 -14.4 6
13:55 1019 30.09 848 25.04 -0.8 30.6 37 -13.7 7.3
14:00 1019 30.09 848 25.04 -1.1 30 37 -13.9 7
14:05 1018 30.06 848 25.04 -1.3 29.7 40 -13.2 8.2
14:10 1018 30.06 848 25.04 -0.9 30.3 38 -13.5 7.6
14:15 1018 30.06 848 25.04 -0.2 31.6 34 -14.1 6.6
14:20 1018 30.06 847 25.01 -1.4 29.5 40 -13.4 7.8
14:25 1018 30.06 847 25.01 -1 30.2 35 -14.7 5.6
14:30 1018 30.06 847 25.01 -1.4 29.6 37 -14.4 6.2
14:35 1018 30.06 847 25.01 -0.7 30.7 38 -13.5 7.7
14:40 1018 30.06 847 25.01 -0.2 31.6 35 -14 6.8
14:45 1018 30.06 847 25.01 -0.4 31.3 40 -12.4 9.7
14:50 1018 30.06 847 25.01 -0.7 30.7 43 -12 10.4
14:55 1018 30.06 847 25.01 -1.2 29.9 41 -13 8.7
15:00 1018 30.06 847 25.01 -1.2 29.9 43 -12.3 9.9
15:05 1017 30.03 847 25.01 -1.1 29.9 42 -12.6 9.3
15:10 1017 30.03 847 25.01 -0.8 30.5 41 -12.7 9.2
15:15 1017 30.03 847 25.01 -1.2 29.8 43 -12.2 10.1
15:20 1017 30.03 846 24.98 -1 30.2 42 -12.3 9.8
15:25 1017 30.03 846 24.98 -0.9 30.5 42 -12.2 10
15:30 1017 30.03 846 24.98 -0.9 30.5 41 -12.6 9.3
15:35 1017 30.03 846 24.98 -1.4 29.4 44 -12.2 10
15:40 1017 30.03 846 24.98 -1.2 29.8 42 -12.7 9.1
15:45 1017 30.03 846 24.98 -1 30.3 42 -12.4 9.7
15:50 1017 30.03 846 24.98 -0.7 30.7 42 -12.2 10.1
15:55 1017 30.03 846 24.98 -0.4 31.3 39 -12.8 8.9
16:00 1017 30.03 846 24.98 0 32 41 -11.8 10.8
16:05 1017 30.03 846 24.98 0.2 32.4 40 -11.8 10.8
16:10 1017 30.03 846 24.98 0.2 32.4 37 -12.9 8.7
16:15 1017 30.03 846 24.98 0.5 33 38 -12.2 10
16:20 1017 30.03 846 24.98 1 33.8 35 -12.7 9.2
16:25 1017 30.03 846 24.98 0.9 33.6 36 -12.7 9.2
16:30 1017 30.03 846 24.98 1 33.8 36 -12.4 9.7
16:35 1017 30.03 846 24.98 0.6 33 40 -11.5 11.4
16:40 1017 30.03 846 24.98 0.2 32.4 38 -12.5 9.4
16:45 1016 30 846 24.98 0.1 32.2 39 -12.3 9.8
16:50 1016 30 845 24.95 0.5 32.8 38 -12.3 9.8
16:55 1016 30 845 24.95 0.8 33.4 39 -11.8 10.7
17:00 1016 30 845 24.95 1.4 34.5 35 -12.3 9.9
17:05 1016 30 845 24.95 1.6 34.8 35 -12.2 10
17:10 1016 30 845 24.95 1.5 34.8 37 -11.5 11.2
17:15 1016 30 845 24.95 1.2 34.2 37 -11.9 10.7
17:20 1016 30 845 24.95 1.1 34 38 -11.6 11.2
17:25 1016 30 845 24.95 0.8 33.4 41 -11.1 12
17:30 1016 30 845 24.95 0.5 32.9 39 -11.9 10.7
17:35 1016 30 845 24.95 0.3 32.6 40 -11.7 10.9
17:40 1016 30 845 24.95 0.1 32.1 43 -11 12.2
17:45 1016 30 845 24.95 -0.1 31.8 43 -11.4 11.5
17:50 1016 30 845 24.95 -0.6 30.9 43 -11.6 11.1
17:55 1016 30 845 24.95 -0.6 30.9 43 -11.8 10.8
18:00 1016 30 845 24.95 -0.7 30.7 45 -11.3 11.7
18:05 1016 30 845 24.95 -0.5 31 43 -11.8 10.8
18:10 1016 30 845 24.95 -0.6 30.9 43 -11.6 11.1
18:15 1016 30 845 24.95 -0.4 31.4 43 -11.4 11.5
18:20 1016 30 845 24.95 -0.5 31.1 44 -11.4 11.5
18:25 1016 30 845 24.95 -0.3 31.4 43 -11.3 11.6
18:30 1016 30 845 24.95 -0.1 31.8 43 -11.2 11.8
18:35 1016 30 845 24.95 -0.1 31.9 40 -12.1 10.3
18:40 1016 30 845 24.95 -0.2 31.6 44 -11 12.2
18:45 1016 30 845 24.95 -0.6 31 44 -11.3 11.7
18:50 1016 30 845 24.95 -1 30.2 45 -11.4 11.5
18:55 1016 30 845 24.95 -1.3 29.7 46 -11.4 11.5
19:00 1016 30 845 24.95 -1.2 29.8 46 -11.4 11.4
19:05 1016 30 845 24.95 -1.1 30.1 46 -11.3 11.6
19:10 1016 30 845 24.95 -1.3 29.6 48 -10.9 12.4
19:15 1016 30 845 24.95 -1.6 29.1 51 -10.5 13.1
19:20 1016 30 845 24.95 -1.8 28.8 52 -10.4 13.3
19:25 1016 30 845 24.95 -1.8 28.8 53 -10.3 13.5
19:30 1016 30 845 24.95 -1.8 28.7 53 -10.1 13.7
19:35 1016 30 845 24.95 -1.8 28.7 54 -9.9 14.3
19:40 1016 30 845 24.95 -1.8 28.8 54 -9.8 14.3
19:45 1016 30 845 24.95 -1.8 28.8 55 -9.8 14.4
19:50 1016 30 845 24.95 -1.8 28.8 55 -9.8 14.4
19:55 1016 30 845 24.95 -1.7 28.9 54 -9.8 14.3
20:00 1016 30 845 24.95 -1.7 28.9 56 -9.5 14.9
20:05 1016 30 845 24.95 -1.8 28.7 56 -9.5 15
20:10 1016 30 845 24.95 -1.9 28.6 51 -10.7 12.7
20:15 1016 30 845 24.95 -1.8 28.7 51 -10.6 12.9
20:20 1016 30 845 24.95 -1.8 28.7 50 -11 12.3
20:25 1016 30 845 24.95 -1.8 28.7 49 -11.3 11.7
20:30 1016 30 845 24.95 -1.8 28.8 49 -11.2 11.9
20:35 1015 29.97 845 24.95 -1.7 28.9 49 -11.2 11.8
20:40 1015 29.97 845 24.95 -1.1 30 43 -12.1 10.2
20:45 1015 29.97 845 24.95 -0.8 30.6 44 -11.5 11.3
20:50 1015 29.97 845 24.95 -0.9 30.3 46 -11.2 11.9
20:55 1015 29.97 845 24.95 -1 30.2 45 -11.6 11.1
21:00 1015 29.97 845 24.95 -0.8 30.5 46 -11 12.2
21:05 1015 29.97 845 24.95 -0.9 30.3 47 -10.8 12.6
21:10 1015 29.97 845 24.95 -1 30.1 49 -10.4 13.3
21:15 1015 29.97 845 24.95 -1.1 30 49 -10.5 13.1
21:20 1015 29.97 845 24.95 -1.2 29.9 50 -10.3 13.5
21:25 1015 29.97 845 24.95 -1.3 29.7 49 -10.6 12.9
21:30 1015 29.97 845 24.95 -1.1 29.9 48 -10.8 12.5
21:35 1015 29.97 845 24.95 -0.9 30.3 47 -10.8 12.6
21:40 1015 29.97 845 24.95 -0.8 30.5 47 -10.7 12.7
21:45 1015 29.97 845 24.95 -0.8 30.6 46 -10.9 12.4
21:50 1015 29.97 845 24.95 -0.6 31 46 -10.8 12.5
21:55 1015 29.97 845 24.95 -0.5 31.1 45 -10.9 12.4
22:00 1015 29.97 845 24.95 -0.5 31.2 46 -10.8 12.6
22:05 1015 29.97 845 24.95 -0.5 31.1 47 -10.5 13.2
22:10 1015 29.97 845 24.95 -0.5 31.1 47 -10.4 13.3
22:15 1015 29.97 845 24.95 -0.6 30.9 48 -10.2 13.6
22:20 1015 29.97 845 24.95 -0.8 30.5 52 -9.6 14.7
22:25 1015 29.97 844 24.92 -1 30.2 53 -9.5 14.9
22:30 1015 29.97 844 24.92 -1 30.2 55 -9 15.9
22:35 1015 29.97 844 24.92 -1.1 30.1 55 -9 15.9
22:40 1015 29.97 844 24.92 -1.1 30.1 55 -9.1 15.7
22:45 1015 29.97 844 24.92 -1 30.2 54 -9.2 15.5
22:50 1015 29.97 844 24.92 -0.9 30.4 52 -9.7 14.6
22:55 1015 29.97 844 24.92 -0.6 30.8 50 -9.8 14.4
23:00 1015 29.97 844 24.92 -0.5 31 51 -9.6 14.8
23:05 1015 29.97 844 24.92 -0.6 30.9 51 -9.5 14.9
23:10 1015 29.97 844 24.92 -0.6 30.9 52 -9.3 15.3
23:15 1015 29.97 844 24.92 -0.6 31 54 -8.8 16.1
23:20 1015 29.97 844 24.92 -0.5 31 54 -8.8 16.1
23:25 1015 29.97 844 24.92 -0.6 30.9 53 -9.1 15.7
23:30 1015 29.97 844 24.92 -0.4 31.2 52 -9.2 15.5
23:35 1015 29.97 844 24.92 -0.5 31.2 50 -9.7 14.5
23:40 1015 29.97 844 24.92 -0.4 31.3 50 -9.6 14.6
23:45 1015 29.97 844 24.92 -0.5 31.2 50 -9.5 14.8
23:50 1015 29.97 844 24.92 -0.6 30.9 50 -9.8 14.3
23:55 1015 29.97 844 24.92 -0.5 31 51 -9.5 14.8
24:00 1015 29.97 844 24.92 -0.8 30.6 51 -9.7 14.6